Time;durP1;ratioP1;P1;durP2;ratioP2;P2;SDS_P1;SDS_P2;PMS_P1;PMS_P2;Temp;Humidity;BMP_temperature;BMP_pressure;BME280_temperature;BME280_humidity;BME280_pressure;Samples;Min_cycle;Max_cycle;Signal;HPM_P1;HPM_P2
2021/01/30 00:02:15;;;;;;;13.90;2.95;;;7.90;99.90;;;;;;5033219;28;20042;-81
2021/01/30 00:04:40;;;;;;;11.55;3.13;;;7.90;99.90;;;;;;5032715;28;20053;-81
2021/01/30 00:07:06;;;;;;;14.18;2.83;;;7.90;99.90;;;;;;4999770;28;20448;-81
2021/01/30 00:09:32;;;;;;;10.23;2.78;;;7.90;99.90;;;;;;5015795;28;20076;-82
2021/01/30 00:11:59;;;;;;;11.40;2.58;;;7.90;99.90;;;;;;5032400;28;20037;-80
2021/01/30 00:14:29;;;;;;;14.55;2.80;;;7.80;99.90;;;;;;5032072;28;20090;-81
2021/01/30 00:16:54;;;;;;;7.18;2.33;;;7.80;99.90;;;;;;5031604;28;20041;-81
2021/01/30 00:19:21;;;;;;;11.57;2.05;;;7.80;99.90;;;;;;5034415;28;20084;-81
2021/01/30 00:22:09;;;;;;;14.20;2.50;;;7.80;99.90;;;;;;4999609;28;20069;-82
2021/01/30 00:24:35;;;;;;;10.82;2.67;;;7.80;99.90;;;;;;5032945;28;20025;-81
2021/01/30 00:27:04;;;;;;;10.50;2.53;;;7.80;99.90;;;;;;5033439;28;20437;-82
2021/01/30 00:29:32;;;;;;;10.35;3.10;;;7.80;99.90;;;;;;5032110;28;20445;-81
2021/01/30 00:31:59;;;;;;;9.80;3.50;;;7.80;99.90;;;;;;5014468;28;20484;-82
2021/01/30 00:34:27;;;;;;;10.48;3.92;;;7.80;99.90;;;;;;5032991;28;20476;-82
2021/01/30 00:36:54;;;;;;;11.45;3.90;;;7.80;99.90;;;;;;5032286;28;20480;-81
2021/01/30 00:39:20;;;;;;;14.30;3.63;;;7.80;99.90;;;;;;5015902;28;20037;-82
2021/01/30 00:41:46;;;;;;;13.43;4.65;;;7.80;99.90;;;;;;5031499;28;20369;-83
2021/01/30 00:44:12;;;;;;;15.75;3.97;;;7.70;99.90;;;;;;5030967;28;20033;-81
2021/01/30 00:46:38;;;;;;;16.75;4.65;;;7.80;99.90;;;;;;5030497;28;20033;-81
2021/01/30 00:49:04;;;;;;;15.13;3.92;;;7.80;99.90;;;;;;5012825;28;20045;-81
2021/01/30 00:51:30;;;;;;;16.25;3.85;;;7.80;99.90;;;;;;5031001;28;20021;-81
2021/01/30 00:53:55;;;;;;;13.13;4.05;;;7.80;99.90;;;;;;5029633;28;20033;-81
2021/01/30 00:56:22;;;;;;;14.20;4.25;;;7.80;99.90;;;;;;5030772;28;20030;-82
2021/01/30 00:58:48;;;;;;;13.60;4.43;;;7.80;99.90;;;;;;5031134;28;20033;-81
2021/01/30 01:01:14;;;;;;;18.58;5.20;;;7.80;99.90;;;;;;5013084;28;20030;-82
2021/01/30 01:03:39;;;;;;;18.50;4.93;;;7.80;99.90;;;;;;5030296;28;20037;-83
2021/01/30 01:06:06;;;;;;;16.92;5.53;;;7.80;99.90;;;;;;5030107;28;20405;-82
2021/01/30 01:08:31;;;;;;;26.67;4.57;;;7.80;99.90;;;;;;5013913;28;20041;-81
2021/01/30 01:10:58;;;;;;;15.35;4.65;;;7.80;99.90;;;;;;5029730;28;20034;-82
2021/01/30 01:13:25;;;;;;;15.98;5.32;;;7.90;99.90;;;;;;5031250;28;20033;-82
2021/01/30 01:15:50;;;;;;;15.00;4.32;;;7.90;99.90;;;;;;5029423;28;20052;-84
2021/01/30 01:18:16;;;;;;;8.70;3.80;;;7.90;99.90;;;;;;5031307;28;20092;-82
2021/01/30 01:20:42;;;;;;;15.73;4.82;;;7.90;99.90;;;;;;5014172;28;20025;-81
2021/01/30 01:23:08;;;;;;;10.50;4.50;;;7.90;99.90;;;;;;5013404;28;20045;-82
2021/01/30 01:25:34;;;;;;;17.15;5.25;;;7.90;99.90;;;;;;5032286;28;20140;-82
2021/01/30 01:28:00;;;;;;;19.48;5.32;;;7.90;99.90;;;;;;5031573;28;20029;-81
2021/01/30 01:30:26;;;;;;;14.43;5.15;;;7.90;99.90;;;;;;5014042;28;20210;-81
2021/01/30 01:32:53;;;;;;;18.05;7.07;;;7.90;99.90;;;;;;5031141;28;20025;-82
2021/01/30 01:35:26;;;;;;;17.08;6.70;;;7.80;99.90;;;;;;5030193;28;20128;-82
2021/01/30 01:37:52;;;;;;;15.82;7.10;;;7.80;99.90;;;;;;5031072;28;20399;-81
2021/01/30 01:40:29;;;;;;;22.92;8.25;;;7.80;99.90;;;;;;5030122;28;20022;-80
2021/01/30 01:43:07;;;;;;;21.35;8.90;;;7.70;99.90;;;;;;5028660;28;20526;-82
2021/01/30 01:45:32;;;;;;;25.50;9.18;;;7.70;99.90;;;;;;5028316;28;20034;-80
2021/01/30 01:48:05;;;;;;;30.50;10.43;;;7.60;99.90;;;;;;5027790;28;20030;-81
2021/01/30 01:50:44;;;;;;;30.45;9.90;;;7.60;99.90;;;;;;5029664;28;20028;-80
2021/01/30 01:53:15;;;;;;;18.90;9.23;;;7.50;99.90;;;;;;5029284;28;20032;-80
2021/01/30 01:55:45;;;;;;;28.85;10.32;;;7.50;99.90;;;;;;5029832;28;20057;-81
2021/01/30 01:58:13;;;;;;;19.27;9.88;;;7.50;99.90;;;;;;5028420;28;20112;-80
2021/01/30 02:00:39;;;;;;;23.98;9.60;;;7.50;99.90;;;;;;5027964;28;20052;-80
2021/01/30 02:03:06;;;;;;;27.48;10.88;;;7.50;99.90;;;;;;5028573;28;20029;-81
2021/01/30 02:05:37;;;;;;;28.90;11.38;;;7.40;99.90;;;;;;5027247;28;20657;-80
2021/01/30 02:08:09;;;;;;;23.83;10.05;;;7.40;99.90;;;;;;5027036;28;20064;-81
2021/01/30 02:10:48;;;;;;;31.67;11.77;;;7.40;99.90;;;;;;5026824;28;20049;-79
2021/01/30 02:13:17;;;;;;;27.63;11.57;;;7.40;99.90;;;;;;5028857;28;20028;-81
2021/01/30 02:15:45;;;;;;;23.10;11.23;;;7.40;99.90;;;;;;5028624;28;20443;-81
2021/01/30 02:18:52;;;;;;;29.55;10.95;;;7.40;99.90;;;;;;5026809;28;20473;-81
2021/01/30 02:21:51;;;;;;;37.38;13.25;;;7.40;99.90;;;;;;5026729;28;20124;-81
2021/01/30 02:24:17;;;;;;;29.27;12.65;;;7.30;99.90;;;;;;5028146;28;20369;-81
2021/01/30 02:27:02;;;;;;;40.20;12.77;;;7.30;99.90;;;;;;5026568;28;20037;-78
2021/01/30 02:29:43;;;;;;;25.95;10.65;;;7.30;99.90;;;;;;5026753;28;20079;-80
2021/01/30 02:32:40;;;;;;;31.50;12.38;;;7.30;99.90;;;;;;5027984;28;20101;-80
2021/01/30 02:35:25;;;;;;;33.67;13.98;;;7.30;99.90;;;;;;5026696;28;20075;-80
2021/01/30 02:38:08;;;;;;;28.55;10.25;;;7.30;99.90;;;;;;5028182;28;20039;-80
2021/01/30 02:40:40;;;;;;;34.13;14.60;;;7.30;99.90;;;;;;5026904;28;20053;-81
2021/01/30 02:43:09;;;;;;;33.85;16.08;;;7.30;99.90;;;;;;5026764;28;20068;-80
2021/01/30 02:45:37;;;;;;;;;;;7.30;99.90;;;;;;5028656;28;20048;-80
2021/01/30 02:48:08;;;;;;;40.90;15.25;;;7.30;99.90;;;;;;5026691;28;20260;-80
2021/01/30 02:50:44;;;;;;;39.75;15.77;;;7.30;99.90;;;;;;5026469;28;20307;-80
2021/01/30 02:53:13;;;;;;;36.58;14.43;;;7.30;99.90;;;;;;5028249;28;20036;-81
2021/01/30 02:55:39;;;;;;;36.03;15.57;;;7.30;99.90;;;;;;5027602;28;20422;-80
2021/01/30 02:58:06;;;;;;;42.67;16.00;;;7.30;99.90;;;;;;5026405;28;20264;-80
2021/01/30 03:00:34;;;;;;;50.45;17.58;;;7.30;99.90;;;;;;5030432;28;20097;-80
2021/01/30 03:02:59;;;;;;;49.95;16.77;;;7.20;99.90;;;;;;5031134;28;20030;-79
2021/01/30 03:05:26;;;;;;;64.07;19.65;;;7.30;99.90;;;;;;5029897;28;20383;-79
2021/01/30 03:08:10;;;;;;;65.57;21.48;;;7.20;99.90;;;;;;5031269;28;20025;-80
2021/01/30 03:10:57;;;;;;;76.50;22.05;;;7.20;99.90;;;;;;5029582;28;20112;-80
2021/01/30 03:13:34;;;;;;;85.45;23.25;;;7.20;99.90;;;;;;5030784;28;20026;-80
2021/01/30 03:16:04;;;;;;;65.70;22.55;;;7.30;99.90;;;;;;5029647;28;20574;-80
2021/01/30 03:18:36;;;;;;;68.35;23.92;;;7.30;99.90;;;;;;5030926;28;20033;-81
2021/01/30 03:21:08;;;;;;;75.25;24.95;;;7.20;99.90;;;;;;5030995;28;20030;-81
2021/01/30 03:23:35;;;;;;;78.38;26.75;;;7.20;99.90;;;;;;5029446;28;20041;-80
2021/01/30 03:26:10;;;;;;;72.38;25.65;;;7.20;99.90;;;;;;5029489;28;20079;-79
2021/01/30 03:28:36;;;;;;;90.07;27.35;;;7.20;99.90;;;;;;5029324;28;20053;-80
2021/01/30 03:31:03;;;;;;;70.60;25.20;;;7.20;99.90;;;;;;5012917;28;20022;-81
2021/01/30 03:33:29;;;;;;;68.53;24.05;;;7.20;99.90;;;;;;5030019;28;20060;-80
2021/01/30 03:35:54;;;;;;;59.50;21.83;;;7.30;99.90;;;;;;5012863;28;20061;-80
2021/01/30 03:38:20;;;;;;;49.20;20.85;;;7.30;99.90;;;;;;5012895;28;20531;-80
2021/01/30 03:40:46;;;;;;;38.03;14.65;;;7.20;99.90;;;;;;5013457;28;20555;-81
2021/01/30 03:43:13;;;;;;;76.00;25.42;;;7.30;99.90;;;;;;5012940;28;20046;-80
2021/01/30 03:45:39;;;;;;;56.28;22.80;;;7.20;99.90;;;;;;5029264;28;20033;-80
2021/01/30 03:48:05;;;;;;;64.22;21.42;;;7.20;99.90;;;;;;4996650;28;20575;-80
2021/01/30 03:50:31;;;;;;;64.18;22.88;;;7.20;99.90;;;;;;5029495;28;20120;-82
2021/01/30 03:52:57;;;;;;;60.30;21.67;;;7.20;99.90;;;;;;5012780;28;20112;-80
2021/01/30 03:55:23;;;;;;;55.38;20.52;;;7.20;99.90;;;;;;5029074;28;20524;-80
2021/01/30 03:57:50;;;;;;;60.88;20.05;;;7.20;99.90;;;;;;5029187;28;20029;-80
2021/01/30 04:00:20;;;;;;;74.70;22.27;;;7.20;99.90;;;;;;5029197;28;20033;-79
2021/01/30 04:02:46;;;;;;;75.20;24.08;;;7.20;99.90;;;;;;5028808;28;20033;-81
2021/01/30 04:05:13;;;;;;;68.47;21.27;;;7.20;99.90;;;;;;5029073;28;20495;-81
2021/01/30 04:07:39;;;;;;;59.65;21.10;;;7.20;99.90;;;;;;5028860;28;20017;-80
2021/01/30 04:10:07;;;;;;;58.78;20.15;;;7.20;99.90;;;;;;5030104;28;20022;-80
2021/01/30 04:12:33;;;;;;;50.67;21.42;;;7.20;99.90;;;;;;5029708;28;20052;-80
2021/01/30 04:15:00;;;;;;;45.10;16.38;;;7.20;99.90;;;;;;5028702;28;20044;-79
2021/01/30 04:17:26;;;;;;;54.40;21.92;;;7.10;99.90;;;;;;5030247;28;20038;-80
2021/01/30 04:19:52;;;;;;;76.88;25.75;;;7.20;99.90;;;;;;5029949;28;20037;-79
2021/01/30 04:22:17;;;;;;;67.60;25.63;;;7.20;99.90;;;;;;5028740;28;20053;-79
2021/01/30 04:24:44;;;;;;;66.65;25.85;;;7.10;99.90;;;;;;5030037;28;20148;-80
2021/01/30 04:27:14;;;;;;;72.10;26.25;;;7.10;99.90;;;;;;5012148;28;20499;-80
2021/01/30 04:29:42;;;;;;;89.45;31.25;;;7.10;99.90;;;;;;5011704;28;20037;-79
2021/01/30 04:32:08;;;;;;;70.55;25.95;;;7.10;99.90;;;;;;5029977;28;20022;-80
2021/01/30 04:34:34;;;;;;;63.70;25.13;;;7.20;99.90;;;;;;5029720;28;20021;-80
2021/01/30 04:37:00;;;;;;;63.88;25.38;;;7.20;99.90;;;;;;5011614;28;20041;-79
2021/01/30 04:39:25;;;;;;;60.13;23.80;;;7.20;99.90;;;;;;5011800;28;20033;-79
2021/01/30 04:42:04;;;;;;;50.90;23.42;;;7.20;99.90;;;;;;5011898;28;20140;-80
2021/01/30 04:45:02;;;;;;;60.22;25.17;;;7.20;99.90;;;;;;5029958;28;20112;-79
2021/01/30 04:47:51;;;;;;;47.10;22.30;;;7.10;99.90;;;;;;5029550;28;20084;-80
2021/01/30 04:50:31;;;;;;;54.70;23.30;;;7.10;99.90;;;;;;5028260;28;20124;-81
2021/01/30 04:53:04;;;;;;;58.72;21.88;;;7.10;99.90;;;;;;5028625;28;20029;-80
2021/01/30 04:55:42;;;;;;;59.85;22.52;;;7.10;99.90;;;;;;5027903;28;20057;-80
2021/01/30 04:58:28;;;;;;;58.53;22.93;;;7.10;99.90;;;;;;5028078;28;20255;-79
2021/01/30 05:01:06;;;;;;;40.40;19.05;;;7.20;99.90;;;;;;5028133;28;20030;-81
2021/01/30 05:04:15;;;;;;;60.22;22.63;;;7.10;99.90;;;;;;5027653;28;20025;-80
2021/01/30 05:06:51;;;;;;;;;;;7.10;99.90;;;;;;5018345;28;20046;-79
2021/01/30 05:09:44;;;;;;;75.90;23.20;;;7.10;99.90;;;;;;5029437;28;19916;-80
2021/01/30 05:12:17;;;;;;;53.00;20.63;;;7.10;99.90;;;;;;5028779;28;20079;-81
2021/01/30 05:14:53;;;;;;;43.75;17.95;;;7.10;99.90;;;;;;5029164;28;20029;-80
2021/01/30 05:17:24;;;;;;;57.40;21.42;;;7.10;99.90;;;;;;5027616;28;20025;-80
2021/01/30 05:19:55;;;;;;;33.70;15.85;;;7.10;99.90;;;;;;5028967;28;20017;-80
2021/01/30 05:22:33;;;;;;;45.20;16.65;;;7.10;99.90;;;;;;5026985;28;20052;-79
2021/01/30 05:24:59;;;;;;;44.42;16.17;;;7.10;99.90;;;;;;5028771;28;20052;-80
2021/01/30 05:27:58;;;;;;;32.45;14.07;;;7.10;99.90;;;;;;5027872;28;20075;-79
2021/01/30 05:31:03;;;;;;;31.48;16.30;;;7.10;99.90;;;;;;5027110;28;20026;-79
2021/01/30 05:34:00;;;;;;;24.52;13.02;;;7.10;99.90;;;;;;5027481;28;20136;-79
2021/01/30 05:36:55;;;;;;;32.47;13.82;;;7.00;99.90;;;;;;5012348;28;20029;-80
2021/01/30 05:40:04;;;;;;;35.08;14.82;;;7.00;99.90;;;;;;5027680;28;20037;-80
2021/01/30 05:42:41;;;;;;;30.55;14.20;;;7.00;99.90;;;;;;5028391;28;20068;-80
2021/01/30 05:45:44;;;;;;;26.98;11.52;;;7.00;99.90;;;;;;5027537;28;20021;-80
2021/01/30 05:48:23;;;;;;;40.13;14.63;;;7.00;99.90;;;;;;5027152;28;20391;-80
2021/01/30 05:50:59;;;;;;;22.90;10.18;;;7.00;99.90;;;;;;5028831;28;20380;-80
2021/01/30 05:53:27;;;;;;;41.50;12.02;;;6.90;99.90;;;;;;5028548;28;20506;-79
2021/01/30 05:55:55;;;;;;;24.48;7.70;;;6.90;99.90;;;;;;5028585;28;20080;-80
2021/01/30 05:58:23;;;;;;;28.00;10.90;;;6.90;99.90;;;;;;5027217;28;20040;-80
2021/01/30 06:00:49;;;;;;;29.80;8.23;;;6.90;99.90;;;;;;5028021;28;20021;-81
2021/01/30 06:03:23;;;;;;;22.60;7.13;;;6.80;99.90;;;;;;5027433;28;20075;-80
2021/01/30 06:05:52;;;;;;;15.75;6.65;;;6.80;99.90;;;;;;5028187;28;20431;-81
2021/01/30 06:08:31;;;;;;;23.63;7.63;;;6.80;99.90;;;;;;5028669;28;20105;-80
2021/01/30 06:11:06;;;;;;;;;;;6.80;99.90;;;;;;5010901;28;20277;-80
2021/01/30 06:13:31;;;;;;;24.27;9.15;;;6.80;99.90;;;;;;5028904;28;19917;-79
2021/01/30 06:16:00;;;;;;;30.88;8.93;;;6.70;99.90;;;;;;5027075;28;20030;-80
2021/01/30 06:18:33;;;;;;;32.85;9.10;;;6.70;99.90;;;;;;5028465;28;20032;-80
2021/01/30 06:21:01;;;;;;;31.60;9.70;;;6.70;99.90;;;;;;5026436;28;20029;-80
2021/01/30 06:23:27;;;;;;;28.60;7.57;;;6.70;99.90;;;;;;5026797;28;20069;-80
2021/01/30 06:26:13;;;;;;;34.00;10.00;;;6.70;99.90;;;;;;5026755;28;20033;-80
2021/01/30 06:28:42;;;;;;;23.88;8.75;;;6.60;99.90;;;;;;5027852;28;20087;-80
2021/01/30 06:31:25;;;;;;;37.45;8.20;;;6.70;99.90;;;;;;5027863;28;20076;-81
2021/01/30 06:33:57;;;;;;;20.65;7.05;;;6.70;99.90;;;;;;5027402;28;20457;-80
2021/01/30 06:36:26;;;;;;;22.23;6.50;;;6.70;99.90;;;;;;5032201;28;20111;-81
2021/01/30 06:38:54;;;;;;;19.42;5.68;;;6.70;99.90;;;;;;5032752;28;20148;-80
2021/01/30 06:41:27;;;;;;;28.20;7.50;;;6.60;99.90;;;;;;5030873;28;20392;-81
2021/01/30 06:44:23;;;;;;;25.50;9.23;;;6.60;99.90;;;;;;5032622;28;20439;-81
2021/01/30 06:47:01;;;;;;;28.38;7.20;;;6.50;99.90;;;;;;5027073;28;20040;-79
2021/01/30 06:49:36;;;;;;;22.90;5.90;;;6.50;99.90;;;;;;5030340;28;20067;-81
2021/01/30 06:52:12;;;;;;;22.40;6.25;;;6.50;99.90;;;;;;5032068;28;20022;-81
2021/01/30 06:54:38;;;;;;;35.47;8.95;;;6.50;99.90;;;;;;5030051;28;20029;-81
2021/01/30 06:57:25;;;;;;;21.17;7.05;;;6.50;99.90;;;;;;5013523;28;20045;-80
2021/01/30 06:59:55;;;;;;;26.23;6.68;;;6.50;99.90;;;;;;5031371;28;20435;-80
2021/01/30 07:02:36;;;;;;;17.58;6.15;;;6.50;99.90;;;;;;5031414;28;20044;-81
2021/01/30 07:05:41;;;;;;;26.02;8.57;;;6.50;99.90;;;;;;5029765;28;20032;-80
2021/01/30 07:08:38;;;;;;;25.85;7.40;;;6.40;99.90;;;;;;5012525;28;20094;-81
2021/01/30 07:11:10;;;;;;;24.48;6.65;;;6.40;99.90;;;;;;5031093;28;20057;-82
2021/01/30 07:13:48;;;;;;;24.52;8.73;;;6.40;99.90;;;;;;5031156;28;20025;-82
2021/01/30 07:16:36;;;;;;;41.70;8.27;;;6.40;99.90;;;;;;5029618;28;20025;-81
2021/01/30 07:19:10;;;;;;;26.10;8.45;;;6.40;99.90;;;;;;5029625;28;20025;-80
2021/01/30 07:21:46;;;;;;;28.85;7.45;;;6.30;99.90;;;;;;5029303;28;20140;-80
2021/01/30 07:24:18;;;;;;;23.08;6.82;;;6.30;99.90;;;;;;5030881;28;20507;-80
2021/01/30 07:26:58;;;;;;;30.98;7.93;;;6.30;99.90;;;;;;5029580;28;20033;-81
2021/01/30 07:29:43;;;;;;;28.85;6.68;;;6.30;99.90;;;;;;5029807;28;20116;-81
2021/01/30 07:32:12;;;;;;;25.65;6.65;;;6.30;99.90;;;;;;5029673;28;20029;-81
2021/01/30 07:34:57;;;;;;;;;;;6.30;99.90;;;;;;5029883;28;20357;-81
2021/01/30 07:37:42;;;;;;;24.58;6.65;;;6.30;99.90;;;;;;5029507;28;19999;-80
2021/01/30 07:40:14;;;;;;;29.75;6.28;;;6.30;99.90;;;;;;5030475;28;20082;-81
2021/01/30 07:42:51;;;;;;;22.67;5.97;;;6.30;99.90;;;;;;5029180;28;20064;-80
2021/01/30 07:45:30;;;;;;;29.83;7.30;;;6.30;99.90;;;;;;5029772;28;20370;-80
2021/01/30 07:48:13;;;;;;;32.78;6.82;;;6.30;99.90;;;;;;5030853;28;20041;-80
2021/01/30 07:50:44;;;;;;;23.00;7.25;;;6.30;99.90;;;;;;5030620;28;20025;-80
2021/01/30 07:53:18;;;;;;;17.33;5.05;;;6.20;99.90;;;;;;5031470;28;20022;-79
2021/01/30 07:56:11;;;;;;;30.58;7.43;;;6.20;99.90;;;;;;5031022;28;20060;-81
2021/01/30 07:58:49;;;;;;;24.15;6.25;;;6.20;99.90;;;;;;5029546;28;20100;-80
2021/01/30 08:01:36;;;;;;;26.50;6.70;;;6.20;99.90;;;;;;5029788;28;20399;-81
2021/01/30 08:04:29;;;;;;;23.05;5.47;;;6.20;99.90;;;;;;5029371;28;20551;-81
2021/01/30 08:07:10;;;;;;;23.48;5.50;;;6.20;99.90;;;;;;5028666;28;20260;-80
2021/01/30 08:09:48;;;;;;;22.65;4.95;;;6.20;99.90;;;;;;5028365;28;20030;-81
2021/01/30 08:12:39;;;;;;;31.30;6.22;;;6.20;99.90;;;;;;5029813;28;20029;-81
2021/01/30 08:15:19;;;;;;;21.92;5.00;;;6.10;99.90;;;;;;5029626;28;20036;-80
2021/01/30 08:17:53;;;;;;;38.35;5.00;;;6.20;99.90;;;;;;5028691;28;20032;-80
2021/01/30 08:20:43;;;;;;;25.90;4.47;;;6.20;99.90;;;;;;5029956;28;20040;-80
2021/01/30 08:23:30;;;;;;;19.13;4.85;;;6.10;99.90;;;;;;5028142;28;20041;-80
2021/01/30 08:26:01;;;;;;;23.58;4.88;;;6.10;99.90;;;;;;5028389;28;20084;-80
2021/01/30 08:28:45;;;;;;;25.75;4.57;;;6.10;99.90;;;;;;5028563;28;20603;-80
2021/01/30 08:31:34;;;;;;;26.50;5.10;;;6.00;99.90;;;;;;5028288;28;20034;-79
2021/01/30 08:34:20;;;;;;;20.88;3.60;;;6.00;99.90;;;;;;5029506;28;20039;-80
2021/01/30 08:36:55;;;;;;;16.20;4.78;;;6.00;99.90;;;;;;5021220;28;20036;-81
2021/01/30 08:39:31;;;;;;;18.90;3.83;;;6.00;99.90;;;;;;5028423;28;20425;-80
2021/01/30 08:42:01;;;;;;;20.63;4.57;;;5.90;99.90;;;;;;5030015;28;20469;-80
2021/01/30 08:44:50;;;;;;;16.50;3.22;;;5.90;99.90;;;;;;5029752;28;20030;-82
2021/01/30 08:47:18;;;;;;;25.75;4.72;;;5.90;99.90;;;;;;5028230;28;20033;-80
2021/01/30 08:50:33;;;;;;;21.98;5.30;;;5.90;99.90;;;;;;5027561;28;20029;-81
2021/01/30 08:53:28;;;;;;;14.55;3.85;;;5.90;99.90;;;;;;5013418;28;20154;-82
2021/01/30 08:55:59;;;;;;;16.35;3.63;;;5.80;99.90;;;;;;5025891;28;20030;-80
2021/01/30 08:58:36;;;;;;;16.45;2.97;;;5.80;99.90;;;;;;5028211;28;20025;-80
2021/01/30 09:01:07;;;;;;;27.92;4.32;;;5.80;99.90;;;;;;5027491;28;20480;-81
2021/01/30 09:04:25;;;;;;;16.40;3.55;;;5.70;99.90;;;;;;5027443;28;20026;-79
2021/01/30 09:06:52;;;;;;;16.05;3.40;;;5.70;99.90;;;;;;5010854;28;20037;-81
2021/01/30 09:09:25;;;;;;;15.95;3.03;;;5.70;99.90;;;;;;5027511;28;20476;-81
2021/01/30 09:11:53;;;;;;;21.17;3.88;;;5.70;99.90;;;;;;5027692;28;20116;-79
2021/01/30 09:14:37;;;;;;;18.27;3.38;;;5.70;99.90;;;;;;5028634;28;20057;-79
2021/01/30 09:17:05;;;;;;;18.20;3.50;;;5.70;99.90;;;;;;5028886;28;20025;-81
2021/01/30 09:19:50;;;;;;;20.25;2.65;;;5.70;99.90;;;;;;5027416;28;20063;-80
2021/01/30 09:22:35;;;;;;;18.13;3.00;;;5.60;99.90;;;;;;5028231;28;20716;-79
2021/01/30 09:25:46;;;;;;;17.67;2.88;;;5.60;99.90;;;;;;5027006;28;20104;-79
2021/01/30 09:28:20;;;;;;;27.58;3.22;;;5.60;99.90;;;;;;5027993;28;20081;-79
2021/01/30 09:31:02;;;;;;;13.52;3.30;;;5.60;99.90;;;;;;5029455;28;20022;-80
2021/01/30 09:33:35;;;;;;;24.75;3.50;;;5.50;99.90;;;;;;5027676;28;20024;-78
2021/01/30 09:36:15;;;;;;;12.88;3.00;;;5.50;99.90;;;;;;5029233;28;20026;-80
2021/01/30 09:38:48;;;;;;;;;;;5.60;99.90;;;;;;5027797;28;20505;-79
2021/01/30 09:41:18;;;;;;;23.25;3.13;;;5.50;99.90;;;;;;5027524;28;20000;-78
2021/01/30 09:43:44;;;;;;;25.40;5.63;;;5.50;99.90;;;;;;5027639;28;20024;-80
2021/01/30 09:46:16;;;;;;;16.58;3.35;;;5.40;99.90;;;;;;5010953;28;20033;-80
2021/01/30 09:48:42;;;;;;;20.88;3.90;;;5.40;99.90;;;;;;5027625;28;20021;-78
2021/01/30 09:51:10;;;;;;;21.50;4.15;;;5.40;99.90;;;;;;5027794;28;20033;-78
2021/01/30 09:53:56;;;;;;;13.88;1.88;;;5.40;99.90;;;;;;5027043;28;20049;-79
2021/01/30 09:56:23;;;;;;;21.88;4.28;;;5.40;99.90;;;;;;5027008;28;20619;-79
2021/01/30 09:58:56;;;;;;;22.00;3.40;;;5.40;99.90;;;;;;5027062;28;20433;-80
2021/01/30 10:01:32;;;;;;;17.90;2.95;;;5.40;99.90;;;;;;5027433;28;20043;-80
2021/01/30 10:04:00;;;;;;;24.88;3.42;;;5.40;99.90;;;;;;5026436;28;20375;-79
2021/01/30 10:06:32;;;;;;;29.08;4.50;;;5.40;99.90;;;;;;5026224;28;20033;-81
2021/01/30 10:09:24;;;;;;;9.45;2.50;;;5.50;99.90;;;;;;5026426;28;20030;-79
2021/01/30 10:11:55;;;;;;;14.63;3.03;;;5.40;99.90;;;;;;5032236;28;20025;-79
2021/01/30 10:14:23;;;;;;;24.73;4.13;;;5.40;99.90;;;;;;5030122;28;20411;-79
2021/01/30 10:17:01;;;;;;;21.80;2.78;;;5.30;99.90;;;;;;5031607;28;20117;-82
2021/01/30 10:19:33;;;;;;;25.40;3.35;;;5.30;99.90;;;;;;5031387;28;20009;-80
2021/01/30 10:22:10;;;;;;;13.68;2.58;;;5.40;99.90;;;;;;5030269;28;20128;-81
2021/01/30 10:24:36;;;;;;;19.25;2.83;;;5.30;99.90;;;;;;5030814;28;20021;-81
2021/01/30 10:27:24;;;;;;;29.10;3.88;;;5.30;99.90;;;;;;5031251;28;20100;-79
2021/01/30 10:29:56;;;;;;;12.88;2.42;;;5.30;99.90;;;;;;5030525;28;20056;-78
2021/01/30 10:32:50;;;;;;;16.58;3.35;;;5.30;99.90;;;;;;5030565;28;20026;-79
2021/01/30 10:35:26;;;;;;;18.52;2.25;;;5.20;99.90;;;;;;5028287;28;20039;-80
2021/01/30 10:38:11;;;;;;;14.13;2.47;;;5.30;99.90;;;;;;5030080;28;20393;-81
2021/01/30 10:40:44;;;;;;;14.77;2.60;;;5.30;99.90;;;;;;5030287;28;20028;-81
2021/01/30 10:43:15;;;;;;;21.23;2.70;;;5.20;99.90;;;;;;5029940;28;20025;-83
2021/01/30 10:45:45;;;;;;;28.67;5.05;;;5.20;99.90;;;;;;5031086;28;20029;-80
2021/01/30 10:48:14;;;;;;;22.45;3.95;;;5.30;99.90;;;;;;5030038;28;20038;-81
2021/01/30 10:50:45;;;;;;;19.73;3.60;;;5.40;99.90;;;;;;5031234;28;20068;-84
2021/01/30 10:53:43;;;;;;;15.35;2.55;;;5.40;99.90;;;;;;5029775;28;20025;-82
2021/01/30 10:56:25;;;;;;;18.30;2.83;;;5.30;99.90;;;;;;5029558;28;20066;-80
2021/01/30 10:58:52;;;;;;;20.75;3.17;;;5.40;99.90;;;;;;5030179;28;20076;-80
2021/01/30 11:01:18;;;;;;;33.85;5.00;;;5.40;99.90;;;;;;5031370;28;20037;-82
2021/01/30 11:03:51;;;;;;;15.57;3.45;;;5.40;99.90;;;;;;5029763;28;20107;-83
2021/01/30 11:06:20;;;;;;;17.42;2.72;;;5.40;99.90;;;;;;5029694;28;20025;-80
2021/01/30 11:08:46;;;;;;;14.30;3.00;;;5.40;99.90;;;;;;5030985;28;20029;-81
2021/01/30 11:11:22;;;;;;;17.85;3.67;;;5.50;99.90;;;;;;5031186;28;20033;-82
2021/01/30 11:13:48;;;;;;;19.67;3.42;;;5.40;99.90;;;;;;5029928;28;20026;-81
2021/01/30 11:16:23;;;;;;;22.02;2.65;;;5.40;99.90;;;;;;5029944;28;20029;-81
2021/01/30 11:18:50;;;;;;;30.23;5.13;;;5.50;99.90;;;;;;5031140;28;20037;-81
2021/01/30 11:21:37;;;;;;;23.10;3.83;;;5.50;99.90;;;;;;5012679;28;20076;-82
2021/01/30 11:24:27;;;;;;;24.55;3.90;;;5.50;99.90;;;;;;5030001;28;20504;-83
2021/01/30 11:26:53;;;;;;;26.13;4.15;;;5.50;99.90;;;;;;5031070;28;20392;-83
2021/01/30 11:29:34;;;;;;;24.65;3.78;;;5.50;99.90;;;;;;5030761;28;20498;-79
2021/01/30 11:32:02;;;;;;;34.63;6.15;;;5.50;99.90;;;;;;5030331;28;20399;-81
2021/01/30 11:34:28;;;;;;;19.08;3.88;;;5.60;99.90;;;;;;5030625;28;20048;-81
2021/01/30 11:36:55;;;;;;;20.33;5.53;;;5.60;99.90;;;;;;5028971;28;20025;-81
2021/01/30 11:39:26;;;;;;;28.75;6.85;;;5.60;99.90;;;;;;5031200;28;20040;-79
2021/01/30 11:41:53;;;;;;;25.17;6.93;;;5.70;99.90;;;;;;5030548;28;20017;-79
2021/01/30 11:44:18;;;;;;;29.77;5.53;;;5.70;99.90;;;;;;5028470;28;20022;-80
2021/01/30 11:46:44;;;;;;;26.45;4.82;;;5.70;99.90;;;;;;5029510;28;20049;-82
2021/01/30 11:49:10;;;;;;;22.15;4.72;;;5.80;99.90;;;;;;5011842;28;20095;-80
2021/01/30 11:51:35;;;;;;;21.85;3.90;;;5.80;99.90;;;;;;5011813;28;20044;-82
2021/01/30 11:54:01;;;;;;;26.02;4.32;;;5.70;99.90;;;;;;5011942;28;20037;-81
2021/01/30 11:56:27;;;;;;;26.15;6.47;;;5.70;99.90;;;;;;5028395;28;20037;-81
2021/01/30 11:58:52;;;;;;;19.63;4.18;;;5.70;99.90;;;;;;5029987;28;20063;-83
2021/01/30 12:01:19;;;;;;;22.05;3.75;;;5.70;99.90;;;;;;5029418;28;20120;-80
2021/01/30 12:03:45;;;;;;;18.40;5.15;;;5.80;99.90;;;;;;5012407;28;20057;-81
2021/01/30 12:06:11;;;;;;;16.52;4.88;;;5.70;99.90;;;;;;5028612;28;20057;-80
2021/01/30 12:08:36;;;;;;;31.38;5.78;;;5.70;99.90;;;;;;5030433;28;20030;-80
2021/01/30 12:11:02;;;;;;;19.27;3.75;;;5.70;99.90;;;;;;4996084;28;20042;-82
2021/01/30 12:13:28;;;;;;;30.70;5.53;;;5.70;99.90;;;;;;5028770;28;20046;-81
2021/01/30 12:15:54;;;;;;;21.13;4.72;;;5.80;99.90;;;;;;5028068;28;20029;-80
2021/01/30 12:18:20;;;;;;;23.08;4.90;;;5.80;99.90;;;;;;4995286;28;20033;-80
2021/01/30 12:20:50;;;;;;;25.33;5.65;;;5.80;99.90;;;;;;5028389;28;20036;-80
2021/01/30 12:23:15;;;;;;;27.23;4.47;;;5.80;99.90;;;;;;5028952;28;20076;-80
2021/01/30 12:25:41;;;;;;;21.40;4.63;;;5.80;99.90;;;;;;5011334;28;20049;-81
2021/01/30 12:28:09;;;;;;;25.42;4.72;;;5.90;99.90;;;;;;5028955;28;20445;-80
2021/01/30 12:30:38;;;;;;;23.08;5.28;;;5.90;99.90;;;;;;5011458;28;20029;-81
2021/01/30 12:33:05;;;;;;;30.85;5.93;;;5.90;99.90;;;;;;5026711;28;20071;-81
2021/01/30 12:35:32;;;;;;;28.75;5.15;;;5.90;99.90;;;;;;5027606;28;20030;-81
2021/01/30 12:37:58;;;;;;;28.65;4.60;;;5.90;99.90;;;;;;5027260;28;20461;-78
2021/01/30 12:40:28;;;;;;;31.50;4.03;;;5.90;99.90;;;;;;5028250;28;20054;-80
2021/01/30 12:42:54;;;;;;;28.27;4.80;;;5.80;99.90;;;;;;5028526;28;20029;-80
2021/01/30 12:45:20;;;;;;;24.20;4.32;;;5.80;99.90;;;;;;5027729;28;20484;-81
2021/01/30 12:47:46;;;;;;;30.05;6.88;;;5.80;99.90;;;;;;5011144;28;20032;-81
2021/01/30 12:50:16;;;;;;;32.40;4.93;;;5.80;99.90;;;;;;5028260;28;20060;-81
2021/01/30 12:52:42;;;;;;;27.05;5.10;;;5.70;99.90;;;;;;5027621;28;20079;-80
2021/01/30 12:55:09;;;;;;;22.42;4.47;;;5.70;99.90;;;;;;5011622;28;20033;-81
2021/01/30 12:57:35;;;;;;;29.98;4.95;;;5.70;99.90;;;;;;5027654;28;20108;-80
2021/01/30 13:00:01;;;;;;;23.17;4.97;;;5.80;99.90;;;;;;5026971;28;20423;-82
2021/01/30 13:02:27;;;;;;;18.38;3.55;;;5.80;99.90;;;;;;4994642;28;20080;-83
2021/01/30 13:04:52;;;;;;;26.60;6.80;;;5.80;99.90;;;;;;4994481;28;20026;-81
2021/01/30 13:07:18;;;;;;;22.02;5.13;;;5.70;99.90;;;;;;4994425;28;20128;-83
2021/01/30 13:09:43;;;;;;;25.65;4.40;;;5.70;99.90;;;;;;5010700;28;20029;-81
2021/01/30 13:12:10;;;;;;;24.92;5.38;;;5.70;99.90;;;;;;5027308;28;20033;-80
2021/01/30 13:14:38;;;;;;;35.75;4.78;;;5.70;99.90;;;;;;5011113;28;20025;-80
2021/01/30 13:17:05;;;;;;;19.85;4.25;;;5.60;99.90;;;;;;5026827;28;20036;-80
2021/01/30 13:19:30;;;;;;;24.55;4.40;;;5.60;99.90;;;;;;5027004;28;20116;-80